Time;durP1;ratioP1;P1;durP2;ratioP2;P2;SDS_P1;SDS_P2;PMS_P1;PMS_P2;Temp;Humidity;BMP_temperature;BMP_pressure;BME280_temperature;BME280_humidity;BME280_pressure;Samples;Min_cycle;Max_cycle;Signal;HPM_P1;HPM_P2
2022/04/12 00:01:54;;;;;;;8.53;6.00;;;10.40;53.50;;;10.74;45.77;97339.38;4965424;29;20043;-51
2022/04/12 00:04:22;;;;;;;10.40;6.90;;;10.40;53.60;;;10.71;45.62;97337.03;4965421;29;20050;-49
2022/04/12 00:06:50;;;;;;;7.83;5.13;;;10.30;53.80;;;10.67;45.98;97333.06;4964904;29;20272;-52
2022/04/12 00:09:18;;;;;;;12.97;5.67;;;10.30;54.00;;;10.63;45.90;97337.06;4964309;28;20057;-50
2022/04/12 00:11:46;;;;;;;9.07;5.70;;;10.30;53.90;;;10.60;46.35;97338.25;4965046;29;20248;-53
2022/04/12 00:14:14;;;;;;;7.07;5.77;;;10.20;54.10;;;10.55;46.61;97331.75;4965303;29;20055;-48
2022/04/12 00:16:42;;;;;;;8.03;5.97;;;10.10;54.50;;;10.51;46.63;97333.91;4964724;29;20047;-51
2022/04/12 00:19:12;;;;;;;8.13;5.90;;;10.10;54.90;;;10.48;46.37;97336.91;4964488;28;20065;-48
2022/04/12 00:21:40;;;;;;;9.37;5.70;;;10.10;54.90;;;10.46;46.49;97330.91;4964917;29;20051;-51
2022/04/12 00:24:08;;;;;;;11.07;6.33;;;10.00;54.60;;;10.44;46.30;97327.59;4965117;29;20111;-52
2022/04/12 00:26:36;;;;;;;9.83;6.10;;;10.00;54.50;;;10.42;46.63;97322.44;4963112;29;20340;-51
2022/04/12 00:29:04;;;;;;;9.33;5.63;;;10.10;54.70;;;10.43;46.79;97320.63;4964962;29;20048;-53
2022/04/12 00:31:32;;;;;;;8.67;5.87;;;10.10;54.70;;;10.44;46.56;97327.59;4964640;29;20047;-53
2022/04/12 00:34:00;;;;;;;8.07;6.00;;;10.10;54.70;;;10.42;46.69;97335.75;4964706;29;20053;-51
2022/04/12 00:36:28;;;;;;;9.13;5.87;;;10.10;54.60;;;10.42;46.98;97332.25;4964424;29;20387;-52
2022/04/12 00:38:56;;;;;;;9.77;6.60;;;10.10;54.80;;;10.40;46.85;97336.91;4964821;29;20240;-49
2022/04/12 00:41:24;;;;;;;8.57;6.33;;;10.00;54.60;;;10.38;46.76;97341.59;4964560;29;20337;-52
2022/04/12 00:43:52;;;;;;;11.80;6.30;;;10.00;55.00;;;10.35;46.88;97336.56;4964593;29;20049;-52
2022/04/12 00:46:19;;;;;;;7.53;5.67;;;10.00;55.40;;;10.33;46.86;97339.44;4963393;29;20057;-52
2022/04/12 00:48:48;;;;;;;7.30;5.43;;;9.90;55.20;;;10.31;47.29;97333.41;4964685;29;20047;-52
2022/04/12 00:51:16;;;;;;;8.73;5.60;;;9.90;55.40;;;10.30;47.51;97341.56;4964439;29;20047;-51
2022/04/12 00:53:45;;;;;;;10.73;5.90;;;9.90;55.60;;;10.29;47.37;97331.91;4964345;29;20062;-51
2022/04/12 00:56:15;;;;;;;8.70;5.97;;;9.90;55.40;;;10.28;47.37;97340.91;4963993;29;20062;-50
2022/04/12 00:58:46;;;;;;;9.90;5.53;;;9.90;55.50;;;10.26;47.44;97335.72;4963415;29;20051;-49
2022/04/12 01:01:14;;;;;;;7.20;5.17;;;9.90;55.40;;;10.26;47.35;97335.72;4963971;28;20069;-51
2022/04/12 01:03:42;;;;;;;8.17;5.47;;;9.90;55.10;;;10.24;47.16;97332.41;4964234;29;20047;-51
2022/04/12 01:06:10;;;;;;;8.07;5.47;;;9.90;55.20;;;10.23;47.10;97328.06;4962547;29;20061;-52
2022/04/12 01:08:38;;;;;;;8.80;5.47;;;9.90;55.20;;;10.22;47.14;97331.75;4964365;29;20042;-50
2022/04/12 01:11:10;;;;;;;8.57;5.67;;;9.90;55.00;;;10.21;47.52;97327.41;4964062;29;20295;-52
2022/04/12 01:13:38;;;;;;;9.17;6.27;;;10.00;54.90;;;10.22;47.45;97323.78;4964281;29;20058;-50
2022/04/12 01:16:07;;;;;;;10.57;5.37;;;9.90;54.80;;;10.23;47.12;97323.56;4963714;29;20070;-49
2022/04/12 01:18:35;;;;;;;10.00;5.80;;;9.90;54.90;;;10.23;47.51;97315.59;4963989;29;20047;-49
2022/04/12 01:21:03;;;;;;;7.77;5.47;;;9.90;55.10;;;10.20;47.56;97318.59;4963379;28;20081;-41
2022/04/12 01:23:43;;;;;;;7.63;5.23;;;9.90;55.40;;;10.19;47.48;97318.78;4963602;28;20062;-41
2022/04/12 01:26:11;;;;;;;10.83;6.87;;;9.80;55.60;;;10.16;47.61;97314.63;4962513;29;20047;-42
2022/04/12 01:28:44;;;;;;;10.50;7.50;;;9.80;55.50;;;10.15;47.46;97309.47;4964099;29;20047;-43
2022/04/12 01:31:12;;;;;;;9.07;6.00;;;9.80;55.70;;;10.12;47.49;97321.28;4963813;29;20039;-42
2022/04/12 01:33:41;;;;;;;9.00;5.67;;;9.80;55.60;;;10.08;47.30;97314.63;4963843;28;20055;-41
2022/04/12 01:36:09;;;;;;;11.50;5.67;;;9.70;55.70;;;10.08;47.52;97319.09;4963402;29;20043;-42
2022/04/12 01:38:37;;;;;;;10.20;5.83;;;9.70;55.50;;;10.08;47.67;97324.41;4964248;29;20050;-43
2022/04/12 01:41:05;;;;;;;9.03;5.77;;;9.70;55.50;;;10.06;47.65;97324.56;4963597;28;20059;-42
2022/04/12 01:43:33;;;;;;;8.57;6.23;;;9.70;55.70;;;10.06;47.66;97316.59;4962787;29;20043;-42
2022/04/12 01:46:01;;;;;;;10.87;5.33;;;9.70;55.70;;;10.04;47.63;97313.28;4962294;29;20051;-42
2022/04/12 01:48:29;;;;;;;9.37;4.87;;;9.70;55.30;;;10.02;47.40;97310.81;4963519;29;20043;-43
2022/04/12 01:50:57;;;;;;;8.37;5.70;;;9.70;55.40;;;10.02;47.54;97305.47;4963770;28;20052;-41
2022/04/12 01:53:25;;;;;;;7.87;5.37;;;9.70;55.60;;;10.02;47.66;97308.16;4963326;28;20330;-41
2022/04/12 01:55:52;;;;;;;7.40;5.00;;;9.70;55.60;;;10.02;47.67;97317.94;4963464;28;20061;-41
2022/04/12 01:58:20;;;;;;;7.60;4.93;;;9.60;55.70;;;10.00;47.93;97315.47;4963622;29;20051;-41
2022/04/12 02:00:48;;;;;;;8.73;5.10;;;9.60;55.70;;;9.99;47.70;97315.63;4963752;29;20077;-42
2022/04/12 02:03:16;;;;;;;7.63;5.23;;;9.60;55.70;;;9.97;47.90;97312.28;4963265;29;20076;-43
2022/04/12 02:05:45;;;;;;;6.73;4.60;;;9.60;55.90;;;9.97;47.74;97306.97;4962904;28;20059;-42
2022/04/12 02:08:12;;;;;;;8.57;5.10;;;9.60;55.70;;;9.96;47.35;97313.28;4963556;29;20053;-43
2022/04/12 02:10:40;;;;;;;7.13;5.23;;;9.60;55.70;;;9.91;47.96;97308.47;4963617;29;20054;-42
2022/04/12 02:13:08;;;;;;;7.17;5.17;;;9.50;56.00;;;9.89;47.77;97314.91;4963509;29;20042;-42
2022/04/12 02:15:36;;;;;;;7.53;4.77;;;9.50;56.10;;;9.86;47.56;97298.31;4963021;29;20127;-44
2022/04/12 02:18:04;;;;;;;7.43;5.00;;;9.40;55.80;;;9.85;47.62;97301.97;4963452;29;20237;-42
2022/04/12 02:20:32;;;;;;;8.20;4.37;;;9.40;55.80;;;9.84;47.89;97299.47;4963560;29;20051;-41
2022/04/12 02:23:01;;;;;;;6.97;5.00;;;9.40;55.80;;;9.83;47.89;97293.34;4963334;29;20051;-43
2022/04/12 02:25:29;;;;;;;6.67;4.70;;;9.40;55.70;;;9.81;48.07;97295.34;4963094;29;20047;-43
2022/04/12 02:27:57;;;;;;;7.07;5.13;;;9.40;55.60;;;9.79;47.50;97301.78;4963141;29;20051;-42
2022/04/12 02:30:24;;;;;;;8.00;4.67;;;9.40;55.40;;;9.81;47.71;97305.97;4963190;28;20062;-42
2022/04/12 02:32:52;;;;;;;7.17;5.17;;;9.50;55.50;;;9.81;47.59;97302.47;4965643;29;20055;-42
2022/04/12 02:35:20;;;;;;;9.83;5.37;;;9.50;55.40;;;9.80;47.79;97301.63;4966814;29;20043;-41
2022/04/12 02:37:48;;;;;;;9.53;5.60;;;9.40;55.40;;;9.77;47.76;97296.66;4966693;29;20053;-42
2022/04/12 02:40:17;;;;;;;10.53;5.43;;;9.50;55.30;;;9.79;47.97;97297.31;4967068;28;20073;-42
2022/04/12 02:42:45;;;;;;;8.23;5.33;;;9.50;55.30;;;9.80;47.59;97298.97;4966795;29;20053;-42
2022/04/12 02:45:13;;;;;;;7.57;4.73;;;9.40;55.30;;;9.78;47.70;97303.63;4966910;29;20342;-42
2022/04/12 02:47:40;;;;;;;7.53;5.10;;;9.40;55.50;;;9.77;47.87;97301.13;4965942;29;20046;-41
2022/04/12 02:50:09;;;;;;;8.37;4.53;;;9.40;56.30;;;9.74;47.74;97296.16;4966764;29;20043;-42
2022/04/12 02:52:37;;;;;;;10.47;5.10;;;9.40;55.30;;;9.73;47.80;97289.16;4966685;29;20241;-41
2022/04/12 02:55:05;;;;;;;7.13;4.87;;;9.50;55.30;;;9.73;47.67;97290.00;4966629;29;20063;-41
2022/04/12 02:57:33;;;;;;;7.00;4.90;;;9.50;55.20;;;9.69;47.80;97278.03;4965836;29;20057;-42
2022/04/12 03:00:01;;;;;;;8.27;5.47;;;9.50;55.00;;;9.66;47.85;97279.19;4966656;28;20055;-42
2022/04/12 03:02:29;;;;;;;5.77;4.43;;;9.50;54.80;;;9.70;47.80;97290.31;4965360;29;20057;-43
2022/04/12 03:04:56;;;;;;;7.53;5.33;;;9.50;54.90;;;9.72;47.73;97284.84;4966295;28;20353;-43
2022/04/12 03:07:24;;;;;;;8.53;5.53;;;9.50;55.10;;;9.72;48.06;97287.50;4965506;29;20053;-42
2022/04/12 03:09:52;;;;;;;6.60;4.83;;;9.40;55.30;;;9.70;47.83;97276.22;4966399;29;20068;-41
2022/04/12 03:12:20;;;;;;;8.17;5.70;;;9.40;55.30;;;9.69;48.06;97279.84;4966333;29;20055;-41
2022/04/12 03:14:47;;;;;;;6.67;4.77;;;9.40;55.60;;;9.67;48.18;97277.34;4966383;29;20368;-41
2022/04/12 03:17:17;;;;;;;7.10;4.87;;;9.30;55.90;;;9.65;48.37;97277.53;4965778;29;20040;-41
2022/04/12 03:19:44;;;;;;;9.77;5.47;;;9.30;56.00;;;9.61;48.25;97278.84;4966168;29;20047;-41
2022/04/12 03:22:13;;;;;;;7.87;5.37;;;9.30;56.30;;;9.58;48.34;97270.38;4966186;29;20054;-41
2022/04/12 03:24:40;;;;;;;8.30;5.50;;;9.20;56.30;;;9.53;48.38;97270.84;4964997;29;20058;-41
2022/04/12 03:27:08;;;;;;;7.60;5.27;;;9.20;56.40;;;9.49;48.36;97266.88;4965211;28;20051;-41
2022/04/12 03:29:36;;;;;;;9.27;5.53;;;9.20;56.40;;;9.46;48.60;97267.22;4964497;29;20062;-41
2022/04/12 03:32:05;;;;;;;8.63;5.27;;;9.10;56.80;;;9.38;48.83;97269.84;4966181;28;20051;-41
2022/04/12 03:34:35;;;;;;;7.93;5.80;;;9.10;57.00;;;9.38;48.71;97275.16;4965856;29;20245;-41
2022/04/12 03:37:04;;;;;;;9.93;5.30;;;9.00;57.20;;;9.34;48.69;97271.97;4965532;29;20047;-41
2022/04/12 03:39:32;;;;;;;7.57;5.37;;;9.00;57.20;;;9.34;48.83;97279.13;4965926;28;20051;-42
2022/04/12 03:42:00;;;;;;;7.33;5.20;;;8.90;57.30;;;9.33;49.03;97285.44;4965805;28;20345;-41
2022/04/12 03:44:27;;;;;;;6.47;4.47;;;8.90;57.30;;;9.33;48.92;97282.78;4965529;28;20157;-42
2022/04/12 03:46:55;;;;;;;6.77;4.63;;;8.90;57.50;;;9.31;49.01;97279.47;4964624;29;20049;-41
2022/04/12 03:49:23;;;;;;;8.47;5.60;;;8.90;57.40;;;9.30;49.11;97280.44;4965690;29;20061;-42
2022/04/12 03:51:52;;;;;;;8.50;5.47;;;8.90;57.60;;;9.27;49.02;97278.94;4965868;29;20252;-42
2022/04/12 03:54:24;;;;;;;9.87;5.37;;;8.90;57.60;;;9.26;49.00;97278.09;4965545;29;20333;-43
2022/04/12 03:56:52;;;;;;;6.60;4.87;;;8.90;57.40;;;9.25;48.76;97271.13;4965259;29;20323;-41
2022/04/12 03:59:21;;;;;;;6.50;5.03;;;8.90;57.20;;;9.25;49.06;97275.63;4964277;29;20047;-41
2022/04/12 04:01:49;;;;;;;8.07;5.93;;;8.90;57.50;;;9.25;49.08;97273.78;4965535;29;20053;-41
2022/04/12 04:04:18;;;;;;;9.03;5.70;;;8.90;57.50;;;9.22;49.09;97274.09;4965431;29;20043;-41
2022/04/12 04:06:46;;;;;;;7.73;5.27;;;8.90;57.50;;;9.24;49.27;97282.75;4964879;29;20069;-41
2022/04/12 04:09:14;;;;;;;7.93;5.80;;;8.90;57.50;;;9.22;49.36;97282.06;4965411;28;20057;-42
2022/04/12 04:11:42;;;;;;;9.43;5.70;;;8.90;57.60;;;9.22;49.22;97275.94;4965261;29;20051;-41
2022/04/12 04:14:12;;;;;;;7.53;4.90;;;8.80;57.60;;;9.19;49.17;97278.91;4965218;29;20065;-41
2022/04/12 04:16:40;;;;;;;8.43;6.10;;;8.80;57.70;;;9.18;49.23;97279.91;4964503;28;20276;-42
2022/04/12 04:19:09;;;;;;;9.43;5.13;;;8.80;57.70;;;9.17;49.28;97278.25;4965033;28;20061;-41
2022/04/12 04:21:38;;;;;;;7.53;6.07;;;8.80;58.00;;;9.14;49.38;97281.22;4965146;29;20057;-42
2022/04/12 04:24:06;;;;;;;8.73;5.50;;;8.70;58.20;;;9.08;49.66;97285.34;4964917;29;20047;-41
2022/04/12 04:26:33;;;;;;;8.33;5.40;;;8.60;58.30;;;9.02;49.66;97288.66;4964713;29;20043;-41
2022/04/12 04:29:02;;;;;;;13.93;7.50;;;8.50;58.30;;;9.01;49.66;97279.84;4964554;28;20057;-41
2022/04/12 04:31:30;;;;;;;9.77;6.30;;;8.60;58.10;;;9.00;49.56;97280.03;4965037;29;20054;-41
2022/04/12 04:33:58;;;;;;;7.53;5.07;;;8.70;58.10;;;9.02;49.68;97272.72;4964592;28;20051;-42
2022/04/12 04:36:26;;;;;;;8.20;5.10;;;8.70;58.10;;;9.02;49.46;97275.38;4964462;29;20051;-41
2022/04/12 04:38:53;;;;;;;7.20;5.50;;;8.70;58.10;;;9.02;49.58;97278.03;4964810;29;20061;-42
2022/04/12 04:41:21;;;;;;;8.23;5.30;;;8.70;57.90;;;9.02;49.56;97275.38;4963246;29;20051;-42
2022/04/12 04:43:49;;;;;;;8.13;5.20;;;8.70;57.90;;;9.00;49.57;97274.72;4964037;28;20059;-43
2022/04/12 04:46:17;;;;;;;9.33;5.63;;;8.60;57.90;;;8.98;49.66;97280.19;4963534;29;20341;-42
2022/04/12 04:48:45;;;;;;;9.03;5.20;;;8.60;58.00;;;8.98;49.76;97279.34;4964843;28;20584;-43
2022/04/12 04:51:13;;;;;;;7.50;5.43;;;8.60;58.20;;;8.94;49.72;97273.53;4964773;29;20050;-41
2022/04/12 04:53:43;;;;;;;7.73;5.87;;;8.60;58.40;;;8.92;49.83;97279.97;4964376;28;20051;-42
2022/04/12 04:56:10;;;;;;;7.13;5.13;;;8.50;58.50;;;8.91;49.96;97278.31;4963770;29;20051;-42
2022/04/12 04:58:38;;;;;;;11.60;5.97;;;8.50;58.80;;;8.88;50.02;97274.19;4964399;29;20061;-42
2022/04/12 05:01:06;;;;;;;10.67;6.10;;;8.40;59.00;;;8.85;50.22;97277.13;4964602;28;20057;-42
2022/04/12 05:03:35;;;;;;;6.87;6.13;;;8.40;59.00;;;8.80;50.15;97272.31;4964483;29;20053;-42
2022/04/12 05:06:03;;;;;;;8.23;5.23;;;8.40;59.20;;;8.76;50.05;97276.28;4963674;29;20062;-42
2022/04/12 05:08:30;;;;;;;9.27;5.53;;;8.30;59.90;;;8.67;50.43;97275.41;4964415;29;20051;-42
2022/04/12 05:10:58;;;;;;;7.77;5.43;;;8.10;60.10;;;8.59;50.62;97282.50;4964162;29;20047;-41
2022/04/12 05:13:26;;;;;;;9.43;6.80;;;8.00;60.60;;;8.55;50.98;97278.47;4964228;28;20127;-42
2022/04/12 05:15:54;;;;;;;7.60;5.67;;;8.00;61.10;;;8.53;50.87;97283.09;4963616;29;20053;-42
2022/04/12 05:18:22;;;;;;;7.87;5.03;;;8.00;60.90;;;8.50;50.66;97289.56;4964273;29;20053;-44
2022/04/12 05:20:50;;;;;;;8.40;5.70;;;8.00;60.70;;;8.52;50.90;97292.88;4963820;29;20055;-43
2022/04/12 05:23:18;;;;;;;9.77;5.60;;;8.10;60.90;;;8.51;51.12;97287.72;4963737;28;20071;-43
2022/04/12 05:25:46;;;;;;;7.20;4.90;;;8.00;61.00;;;8.48;51.35;97289.72;4963529;29;20264;-44
2022/04/12 05:28:14;;;;;;;11.07;6.53;;;8.00;61.00;;;8.47;51.37;97288.06;4964032;29;20342;-44
2022/04/12 05:30:42;;;;;;;6.53;4.87;;;8.00;61.30;;;8.43;51.48;97289.38;4963484;28;20051;-43
2022/04/12 05:33:10;;;;;;;9.93;5.90;;;7.90;61.60;;;8.46;51.45;97288.22;4963976;29;20341;-43
2022/04/12 05:35:38;;;;;;;10.43;6.63;;;8.00;61.50;;;8.53;51.48;97288.41;4963545;29;20053;-43
2022/04/12 05:38:06;;;;;;;8.27;5.80;;;8.10;61.60;;;8.59;51.42;97299.25;4963797;29;20057;-42
2022/04/12 05:40:34;;;;;;;8.73;6.07;;;8.20;61.20;;;8.61;51.57;97296.44;4963756;29;20322;-43
2022/04/12 05:43:02;;;;;;;8.57;6.50;;;8.20;61.00;;;8.62;51.33;97301.56;4963932;28;20387;-43
2022/04/12 05:45:30;;;;;;;9.60;7.67;;;8.20;61.00;;;8.63;51.22;97305.91;4963461;28;20054;-43
2022/04/12 05:47:58;;;;;;;9.57;5.53;;;8.30;60.90;;;8.66;51.77;97310.88;4963602;29;20043;-43
2022/04/12 05:50:27;;;;;;;8.30;6.00;;;8.30;61.00;;;8.70;51.76;97316.69;4963580;28;20058;-42
2022/04/12 05:52:56;;;;;;;8.80;7.00;;;8.30;61.10;;;8.74;51.70;97322.53;4963899;29;20086;-42
2022/04/12 05:55:29;;;;;;;7.63;5.90;;;8.40;61.10;;;8.75;51.72;97314.41;4963260;29;20054;-45
2022/04/12 05:57:59;;;;;;;8.77;6.10;;;8.40;61.10;;;8.75;51.72;97302.97;4963733;29;20069;-43
2022/04/12 06:00:31;;;;;;;8.70;7.03;;;8.40;61.10;;;8.80;51.67;97308.63;4964216;29;20051;-43
2022/04/12 06:02:59;;;;;;;10.40;6.30;;;8.40;61.20;;;8.83;52.00;97308.31;4963836;29;20141;-42
2022/04/12 06:05:30;;;;;;;9.50;6.63;;;8.50;61.40;;;8.85;51.85;97303.69;4963754;28;20047;-42
2022/04/12 06:08:03;;;;;;;8.27;6.90;;;8.50;61.40;;;8.90;51.89;97308.50;4967576;29;20051;-42
2022/04/12 06:10:31;;;;;;;8.07;6.03;;;8.60;61.40;;;8.92;51.97;97304.72;4967421;29;20047;-41
2022/04/12 06:12:59;;;;;;;8.30;6.00;;;8.60;61.50;;;8.92;52.30;97304.72;4966998;28;20047;-43
2022/04/12 06:15:28;;;;;;;10.50;5.50;;;8.70;61.40;;;8.98;52.18;97305.91;4966657;28;20055;-42
2022/04/12 06:17:56;;;;;;;9.27;6.53;;;8.80;61.50;;;9.02;52.35;97301.94;4967381;29;20057;-41
2022/04/12 06:20:24;;;;;;;8.50;6.40;;;8.80;61.60;;;9.07;52.20;97300.47;4967189;29;20051;-43
2022/04/12 06:22:51;;;;;;;10.17;6.97;;;8.90;61.60;;;9.11;52.74;97297.47;4967366;29;20057;-44
2022/04/12 06:25:20;;;;;;;9.83;7.50;;;8.90;61.80;;;9.16;52.81;97296.00;4966779;29;20225;-42
2022/04/12 06:27:50;;;;;;;10.63;7.57;;;8.90;62.60;;;9.18;52.65;97299.31;4967016;29;20058;-42
2022/04/12 06:30:22;;;;;;;11.57;6.37;;;9.00;62.40;;;9.23;52.62;97301.53;4965910;29;20055;-43
2022/04/12 06:32:51;;;;;;;6.70;5.53;;;9.10;62.20;;;9.31;52.20;97300.72;4967141;28;20054;-43
2022/04/12 06:35:20;;;;;;;7.57;4.47;;;9.20;61.20;;;9.37;51.93;97300.88;4966989;29;20245;-44
2022/04/12 06:37:52;;;;;;;6.40;4.27;;;9.20;60.50;;;9.44;52.14;97295.75;4965828;29;20061;-42
2022/04/12 06:40:21;;;;;;;7.23;4.37;;;9.30;60.00;;;9.49;51.51;97288.13;4965515;29;20352;-42
2022/04/12 06:42:50;;;;;;;8.40;5.00;;;9.40;59.20;;;9.54;51.06;97298.25;4967018;29;20071;-42
2022/04/12 06:45:18;;;;;;;6.30;4.33;;;9.50;58.80;;;9.61;51.35;97294.78;4966528;29;20050;-42
2022/04/12 06:47:59;;;;;;;6.07;3.60;;;9.60;58.80;;;9.68;51.41;97302.13;4965964;29;20051;-43
2022/04/12 06:50:28;;;;;;;6.37;4.50;;;9.70;58.70;;;9.72;51.37;97295.47;4966460;29;20049;-42
2022/04/12 06:52:57;;;;;;;8.07;4.47;;;9.80;58.70;;;9.80;51.44;97291.00;4964924;29;20077;-42
2022/04/12 06:55:26;;;;;;;5.93;4.47;;;9.90;58.90;;;9.86;51.49;97289.50;4965221;29;20264;-42
2022/04/12 06:57:54;;;;;;;6.40;4.80;;;9.90;58.90;;;9.89;51.81;97294.50;4965614;29;20549;-44
2022/04/12 07:00:22;;;;;;;8.93;5.00;;;10.00;58.90;;;9.98;51.61;97296.19;4966605;29;20054;-43
2022/04/12 07:02:50;;;;;;;8.47;5.57;;;10.00;59.00;;;10.02;51.60;97294.84;4966089;28;20055;-44
2022/04/12 07:05:19;;;;;;;5.83;4.70;;;10.10;59.10;;;10.07;51.62;97297.00;4966343;29;20058;-45
2022/04/12 07:07:47;;;;;;;6.50;4.90;;;10.20;58.90;;;10.14;51.61;97300.66;4966370;29;20073;-43
2022/04/12 07:10:16;;;;;;;8.20;5.47;;;10.30;58.90;;;10.25;51.41;97297.66;4966080;28;20051;-43
2022/04/12 07:12:44;;;;;;;6.80;4.83;;;10.40;58.90;;;10.33;51.34;97296.84;4966443;29;20049;-45
2022/04/12 07:15:14;;;;;;;6.97;4.80;;;10.40;58.90;;;10.39;51.30;97296.19;4965893;28;20055;-43
2022/04/12 07:17:42;;;;;;;8.60;4.87;;;10.50;58.80;;;10.47;51.57;97299.81;4965793;28;20241;-45
2022/04/12 07:20:11;;;;;;;7.77;5.17;;;10.50;58.80;;;10.50;51.35;97302.16;4966330;29;20110;-43
2022/04/12 07:22:39;;;;;;;7.60;4.63;;;10.60;58.70;;;10.56;51.31;97296.13;4965157;29;20051;-43
2022/04/12 07:25:09;;;;;;;7.50;4.80;;;10.70;58.60;;;10.63;51.03;97308.59;4964758;29;20051;-44
2022/04/12 07:27:38;;;;;;;6.73;4.57;;;10.70;58.40;;;10.71;51.34;97313.06;4965262;28;20051;-44
2022/04/12 07:30:08;;;;;;;8.47;5.43;;;10.80;58.30;;;10.79;51.06;97318.38;4966003;29;20071;-43
2022/04/12 07:32:36;;;;;;;7.03;4.93;;;10.90;58.50;;;10.86;51.42;97315.03;4964961;29;20241;-44
2022/04/12 07:35:05;;;;;;;9.87;5.17;;;10.90;58.50;;;10.92;50.98;97320.50;4966197;28;20047;-44
2022/04/12 07:37:33;;;;;;;6.13;4.70;;;11.00;58.50;;;10.98;51.22;97319.00;4965545;29;20051;-44
2022/04/12 07:40:04;;;;;;;8.85;4.72;;;11.00;58.20;;;11.06;51.12;97315.47;4965970;29;20050;-44
2022/04/12 07:42:32;;;;;;;5.47;4.37;;;11.10;58.20;;;11.13;50.74;97314.63;4965884;29;20043;-45
2022/04/12 07:45:00;;;;;;;7.20;5.10;;;11.20;58.20;;;11.21;51.16;97316.41;4965674;29;20047;-43
2022/04/12 07:47:28;;;;;;;8.50;5.40;;;11.30;58.30;;;11.30;51.16;97314.53;4964559;29;20035;-44
2022/04/12 07:49:56;;;;;;;7.33;5.90;;;11.40;58.70;;;11.39;51.78;97313.50;4965817;29;20045;-43
2022/04/12 07:52:24;;;;;;;10.20;6.77;;;11.50;59.60;;;11.46;52.02;97316.28;4965178;28;20269;-44
2022/04/12 07:54:52;;;;;;;9.82;7.20;;;11.60;59.60;;;11.54;51.87;97314.41;4965716;29;20051;-43
2022/04/12 07:57:21;;;;;;;8.87;7.40;;;11.60;59.90;;;11.61;52.08;97320.72;4964839;29;20058;-45
2022/04/12 07:59:49;;;;;;;10.07;6.82;;;11.70;60.20;;;11.68;52.04;97323.50;4965544;29;20053;-45
2022/04/12 08:02:17;;;;;;;10.43;6.10;;;11.80;60.00;;;11.75;52.03;97323.63;4965579;29;20043;-44
2022/04/12 08:04:45;;;;;;;9.63;6.10;;;11.90;60.10;;;11.81;51.83;97317.59;4965425;28;20248;-44
2022/04/12 08:07:13;;;;;;;9.20;6.45;;;12.00;59.70;;;11.89;51.87;97314.91;4964825;29;20039;-44
2022/04/12 08:09:40;;;;;;;9.20;5.85;;;12.00;59.70;;;11.96;52.19;97317.66;4965304;29;20066;-44
2022/04/12 08:12:09;;;;;;;9.77;6.18;;;12.10;59.50;;;12.02;52.12;97315.13;4965428;28;20047;-45
2022/04/12 08:14:37;;;;;;;9.30;5.32;;;12.20;59.40;;;12.09;51.51;97315.25;4965198;29;20111;-44
2022/04/12 08:17:05;;;;;;;11.57;5.50;;;12.30;59.30;;;12.17;51.92;97314.34;4964737;29;20348;-43
2022/04/12 08:19:33;;;;;;;9.90;6.50;;;12.30;59.10;;;12.25;51.76;97308.09;4965273;29;20063;-44
2022/04/12 08:22:01;;;;;;;8.18;5.97;;;12.40;58.90;;;12.32;51.58;97307.22;4965348;29;20260;-45
2022/04/12 08:24:29;;;;;;;11.13;6.43;;;12.50;58.80;;;12.40;51.78;97301.78;4965122;29;20055;-46
2022/04/12 08:26:57;;;;;;;8.68;6.53;;;12.60;58.70;;;12.49;51.38;97307.91;4964860;28;20047;-44
2022/04/12 08:29:25;;;;;;;8.80;6.65;;;12.70;58.80;;;12.57;51.59;97310.47;4963728;28;20053;-44
2022/04/12 08:31:53;;;;;;;9.57;5.53;;;12.80;58.80;;;12.65;51.31;97304.22;4964981;29;20352;-44
2022/04/12 08:34:20;;;;;;;8.35;6.65;;;12.80;58.40;;;12.72;51.28;97302.50;4965033;29;20051;-45
2022/04/12 08:36:48;;;;;;;6.93;5.47;;;12.90;58.20;;;12.81;50.55;97300.56;4964187;29;20074;-44
2022/04/12 08:39:16;;;;;;;7.57;4.70;;;13.00;57.40;;;12.89;50.64;97303.16;4964832;29;20051;-44
2022/04/12 08:41:44;;;;;;;8.55;5.15;;;13.10;57.20;;;12.93;50.08;97303.59;4964772;29;20043;-43
2022/04/12 08:44:16;;;;;;;5.43;4.60;;;13.10;56.40;;;12.98;49.83;97298.53;4964721;28;20051;-47
2022/04/12 08:46:47;;;;;;;6.30;3.92;;;13.10;56.40;;;13.02;49.03;97294.47;4962476;29;20058;-45
2022/04/12 08:49:16;;;;;;;5.32;4.28;;;13.20;55.60;;;13.06;48.81;97289.59;4963288;29;20255;-44
2022/04/12 08:51:50;;;;;;;6.28;4.65;;;13.20;55.30;;;13.10;48.53;97288.22;5079540;28;20387;-45
2022/04/12 08:54:19;;;;;;;8.05;5.13;;;13.20;54.60;;;13.15;48.60;97291.97;5057873;28;20053;-45
2022/04/12 08:56:52;;;;;;;8.00;5.03;;;13.30;54.80;;;13.19;48.66;97295.13;5057891;28;20246;-43
2022/04/12 08:59:20;;;;;;;7.43;5.18;;;13.40;55.00;;;13.26;49.08;97303.22;5059332;28;20055;-44
2022/04/12 09:01:48;;;;;;;10.45;5.55;;;13.40;55.60;;;13.31;49.25;97300.84;5059083;28;20045;-46
2022/04/12 09:04:16;;;;;;;6.35;5.03;;;13.50;55.80;;;13.34;49.19;97298.63;5074718;28;20343;-44
2022/04/12 09:06:56;;;;;;;8.70;5.50;;;13.50;55.70;;;13.39;48.83;97303.41;5058483;28;20053;-43
2022/04/12 09:09:31;;;;;;;8.63;4.20;;;13.60;54.50;;;13.46;49.04;97306.19;5059011;28;20051;-44
2022/04/12 09:12:02;;;;;;;7.47;4.45;;;13.70;55.20;;;13.53;48.24;97302.56;5058993;28;20049;-44
2022/04/12 09:14:44;;;;;;;6.72;4.80;;;13.70;54.40;;;13.61;48.10;97309.66;5059030;28;20045;-43
2022/04/12 09:17:20;;;;;;;7.90;4.68;;;13.90;53.50;;;13.69;47.89;97301.50;5058470;28;20051;-44
2022/04/12 09:19:55;;;;;;;7.47;4.47;;;14.00;53.50;;;13.78;47.91;97300.38;5058744;28;20049;-43
2022/04/12 09:22:27;;;;;;;7.82;4.63;;;14.00;53.80;;;13.89;48.01;97300.88;5059060;28;20053;-46
2022/04/12 09:24:59;;;;;;;7.03;4.80;;;14.10;53.50;;;13.97;47.77;97300.75;5059035;28;20065;-43
2022/04/12 09:27:33;;;;;;;8.48;4.18;;;14.20;53.70;;;14.06;47.33;97304.13;5057979;28;20045;-45
2022/04/12 09:30:11;;;;;;;5.38;3.72;;;14.30;53.10;;;14.10;47.15;97295.53;5058684;28;20037;-43
2022/04/12 09:32:49;;;;;;;7.20;4.10;;;14.40;52.50;;;14.19;46.85;97301.59;5058728;28;20045;-44
2022/04/12 09:35:19;;;;;;;5.20;3.78;;;14.50;51.50;;;14.28;46.88;97299.59;5058598;28;20047;-44
2022/04/12 09:37:47;;;;;;;7.18;4.25;;;14.50;52.20;;;14.36;46.92;97296.75;5058101;28;20049;-44
2022/04/12 09:40:16;;;;;;;9.15;4.63;;;14.60;52.50;;;14.45;47.05;97284.91;5057646;28;20057;-46
2022/04/12 09:42:49;;;;;;;10.20;5.18;;;14.70;52.80;;;14.51;47.18;97280.59;5058449;28;20108;-43
2022/04/12 09:45:27;;;;;;;7.05;5.65;;;14.80;52.40;;;14.57;47.17;97274.50;5058697;28;20049;-44
2022/04/12 09:48:04;;;;;;;7.43;5.35;;;14.90;52.90;;;14.65;47.14;97274.34;5056565;28;20344;-45
2022/04/12 09:50:59;;;;;;;7.28;4.75;;;15.00;52.70;;;14.72;47.19;97271.72;5058130;28;20335;-44
2022/04/12 09:53:41;;;;;;;6.85;4.38;;;15.00;52.50;;;14.78;46.52;97276.28;5058147;28;20049;-46
2022/04/12 09:56:17;;;;;;;9.55;5.22;;;15.10;50.60;;;14.87;46.22;97271.59;5058534;28;20059;-45
2022/04/12 09:58:48;;;;;;;8.77;4.57;;;15.10;51.00;;;14.90;46.14;97272.03;5058208;28;20057;-45
2022/04/12 10:01:18;;;;;;;8.00;5.05;;;15.20;51.50;;;14.98;45.94;97264.84;5054770;28;20049;-45
2022/04/12 10:03:52;;;;;;;10.23;4.82;;;15.20;51.40;;;15.04;45.81;97275.59;5044707;28;20049;-43
2022/04/12 10:06:24;;;;;;;5.80;5.00;;;15.30;51.20;;;15.11;45.89;97275.66;5043141;28;20053;-44
2022/04/12 10:09:00;;;;;;;9.43;4.43;;;15.30;51.50;;;15.14;45.77;97267.19;5044681;28;20240;-46
2022/04/12 10:11:28;;;;;;;5.47;4.70;;;15.40;50.70;;;15.21;46.06;97265.38;5043571;28;20052;-44
2022/04/12 10:13:56;;;;;;;6.38;4.55;;;15.50;51.50;;;15.26;46.02;97265.59;5045301;28;20060;-46
2022/04/12 10:16:24;;;;;;;7.93;4.72;;;15.50;51.20;;;15.32;45.48;97272.84;5044109;28;20073;-45
2022/04/12 10:18:54;;;;;;;5.32;4.20;;;15.50;50.60;;;15.36;45.31;97268.72;5044354;28;20045;-43
2022/04/12 10:21:26;;;;;;;8.27;4.47;;;15.60;50.20;;;15.43;44.98;97270.59;5044424;28;20247;-45
2022/04/12 10:23:58;;;;;;;6.40;3.90;;;15.70;50.00;;;15.47;44.35;97264.66;5044370;28;20046;-45
2022/04/12 10:26:27;;;;;;;9.48;4.13;;;15.70;49.40;;;15.52;44.37;97264.84;5042844;28;20045;-43
2022/04/12 10:29:04;;;;;;;5.68;3.47;;;15.70;49.20;;;15.56;43.73;97255.38;5043281;28;20049;-44
2022/04/12 10:31:33;;;;;;;4.95;3.67;;;15.80;48.40;;;15.64;44.10;97261.59;5044249;28;20037;-44
2022/04/12 10:34:14;;;;;;;5.93;3.95;;;15.80;49.10;;;15.71;43.52;97251.72;5044235;28;20052;-43